Time;durP1;ratioP1;P1;durP2;ratioP2;P2;SDS_P1;SDS_P2;PMS_P1;PMS_P2;Temp;Humidity;BMP_temperature;BMP_pressure;BME280_temperature;BME280_humidity;BME280_pressure;Samples;Min_cycle;Max_cycle;Signal;HPM_P1;HPM_P2
2022/10/28 00:00:21;;;;;;;2.90;1.90;;;;;;;15.17;89.44;101914.19;6229671;28;20225;-73
2022/10/28 00:03:44;;;;;;;3.13;2.27;;;;;;;15.11;89.12;101915.59;6220884;28;20468;-74
2022/10/28 00:07:05;;;;;;;3.90;2.97;;;;;;;15.10;88.98;101915.75;6211915;28;20607;-74
2022/10/28 00:10:27;;;;;;;3.37;2.70;;;;;;;15.14;88.62;101911.75;6229291;28;20236;-74
2022/10/28 00:13:49;;;;;;;8.67;3.00;;;;;;;14.88;89.44;101911.41;6225877;28;20220;-74
2022/10/28 00:17:10;;;;;;;18.83;3.17;;;;;;;14.92;89.72;101906.53;6213857;28;20953;-75
2022/10/28 00:20:31;;;;;;;1.93;1.83;;;;;;;14.95;89.47;101900.84;6220200;28;21188;-75
2022/10/28 00:23:53;;;;;;;2.90;2.60;;;;;;;14.97;89.39;101902.44;6217415;28;20319;-73
2022/10/28 00:27:15;;;;;;;3.50;2.23;;;;;;;14.98;89.59;101889.69;6216279;28;20243;-74
2022/10/28 00:30:36;;;;;;;2.70;1.93;;;;;;;14.99;89.08;101891.41;6228607;28;20374;-73
2022/10/28 00:33:59;;;;;;;2.80;2.50;;;;;;;14.94;89.14;101888.25;6230037;28;20229;-74
2022/10/28 00:37:20;;;;;;;2.60;2.40;;;;;;;14.96;89.31;101902.53;6217672;28;20236;-74
2022/10/28 00:40:41;;;;;;;2.17;1.83;;;;;;;14.84;89.86;101895.53;6227342;28;20741;-74
2022/10/28 00:44:42;;;;;;;2.30;2.10;;;;;;;14.80;89.88;101896.78;6227437;28;20240;-74
2022/10/28 00:48:04;;;;;;;3.73;2.17;;;;;;;14.61;90.66;101902.16;6218901;28;20624;-73
2022/10/28 00:51:27;;;;;;;3.73;2.20;;;;;;;14.55;91.27;101909.00;6211231;28;20232;-73
2022/10/28 00:54:51;;;;;;;3.70;3.07;;;;;;;14.52;91.15;101903.81;6230127;28;20225;-74
2022/10/28 00:58:13;;;;;;;3.93;2.00;;;;;;;14.54;91.15;101898.28;6227700;28;20236;-74
2022/10/28 01:01:35;;;;;;;5.03;2.43;;;;;;;14.57;90.63;101909.72;6219920;28;20661;-74
2022/10/28 01:04:56;;;;;;;2.90;2.43;;;;;;;14.57;91.04;101898.00;6219385;28;20233;-74
2022/10/28 01:08:17;;;;;;;3.80;2.40;;;;;;;14.55;90.87;101892.72;6226337;28;20232;-75
2022/10/28 01:11:53;;;;;;;2.30;2.00;;;;;;;14.69;90.33;101900.47;6220182;28;20247;-74
2022/10/28 01:15:24;;;;;;;5.20;2.60;;;;;;;14.77;89.99;101899.81;6230280;28;20320;-74
2022/10/28 01:19:00;;;;;;;2.30;2.07;;;;;;;14.89;89.62;101902.28;6227038;28;20319;-74
2022/10/28 01:22:25;;;;;;;1.90;1.80;;;;;;;14.91;89.54;101899.41;6213001;28;20247;-73
2022/10/28 01:26:11;;;;;;;4.27;2.33;;;;;;;14.84;89.48;101901.81;6224987;28;20232;-74
2022/10/28 01:29:59;;;;;;;4.87;2.77;;;;;;;14.75;89.76;101896.38;6227707;28;20237;-74
2022/10/28 01:33:29;;;;;;;2.13;1.87;;;;;;;14.73;90.21;101895.63;6194775;28;20229;-73
2022/10/28 01:36:58;;;;;;;12.83;2.90;;;;;;;14.77;90.10;101887.06;6208561;28;20673;-73
2022/10/28 01:40:27;;;;;;;3.47;2.50;;;;;;;14.82;89.66;101884.81;6229553;28;20232;-74
2022/10/28 01:43:56;;;;;;;2.43;1.87;;;;;;;14.72;90.43;101896.63;6214863;28;20772;-73
2022/10/28 01:47:22;;;;;;;4.73;2.27;;;;;;;14.77;90.21;101895.22;6214060;28;20744;-74
2022/10/28 01:50:50;;;;;;;2.13;1.93;;;;;;;14.73;90.75;101906.47;6227741;28;20232;-74
2022/10/28 01:54:17;;;;;;;4.23;2.90;;;;;;;14.75;90.02;101882.78;6223327;28;20219;-74
2022/10/28 01:57:40;;;;;;;3.37;2.73;;;;;;;14.88;89.55;101892.38;6218505;28;20247;-74
2022/10/28 02:01:05;;;;;;;3.03;2.10;;;;;;;14.88;89.78;101894.25;6223390;28;20323;-74
2022/10/28 02:04:26;;;;;;;5.10;2.67;;;;;;;14.82;89.74;101887.53;6219673;28;20216;-73
2022/10/28 02:07:52;;;;;;;4.60;2.47;;;;;;;14.72;90.04;101888.50;6219906;28;20676;-74
2022/10/28 02:11:43;;;;;;;5.07;2.27;;;;;;;14.73;90.64;101885.63;6220556;28;20324;-75
2022/10/28 02:15:36;;;;;;;3.20;1.93;;;;;;;14.69;90.41;101869.75;6201735;28;20694;-73
2022/10/28 02:19:05;;;;;;;3.07;2.63;;;;;;;14.75;90.29;101869.22;6226180;28;20685;-74
2022/10/28 02:22:32;;;;;;;4.80;2.37;;;;;;;14.90;89.50;101865.09;6223802;28;20220;-74
2022/10/28 02:26:01;;;;;;;2.97;2.20;;;;;;;14.90;89.21;101867.81;6231783;28;20244;-74
2022/10/28 02:29:29;;;;;;;5.70;3.13;;;;;;;14.83;89.55;101866.66;6226324;28;20818;-73
2022/10/28 02:32:53;;;;;;;3.73;2.80;;;;;;;14.88;89.71;101862.53;6220289;28;20314;-74
2022/10/28 02:36:18;;;;;;;4.77;2.27;;;;;;;14.88;89.59;101854.38;6213102;28;20236;-74
2022/10/28 02:39:42;;;;;;;4.97;3.03;;;;;;;14.77;90.08;101845.50;6220367;28;20240;-73
2022/10/28 02:43:08;;;;;;;3.77;2.20;;;;;;;14.69;90.34;101856.19;6215659;28;20259;-73
2022/10/28 02:46:31;;;;;;;5.17;2.27;;;;;;;14.57;90.70;101855.44;6209381;28;21421;-74
2022/10/28 02:49:56;;;;;;;4.23;2.73;;;;;;;14.57;90.83;101846.44;6213584;28;20228;-75
2022/10/28 02:53:22;;;;;;;4.13;2.30;;;;;;;14.59;90.82;101839.88;6229049;28;20235;-73
2022/10/28 02:56:51;;;;;;;2.97;2.70;;;;;;;14.61;90.63;101837.88;6210837;28;20268;-74
2022/10/28 03:00:16;;;;;;;2.40;2.20;;;;;;;14.65;90.47;101838.44;6212428;28;20224;-73
2022/10/28 03:03:37;;;;;;;4.37;2.73;;;;;;;14.67;90.26;101837.31;6224768;28;20232;-74
2022/10/28 03:06:57;;;;;;;6.40;3.10;;;;;;;14.61;90.08;101835.16;6215580;28;20244;-74
2022/10/28 03:10:19;;;;;;;10.20;3.30;;;;;;;14.56;90.44;101829.28;6226001;28;20236;-74
2022/10/28 03:13:39;;;;;;;3.67;2.70;;;;;;;14.59;90.44;101831.75;6223661;28;20232;-74
2022/10/28 03:17:01;;;;;;;4.13;1.80;;;;;;;14.70;89.91;101826.22;6210577;28;20328;-73
2022/10/28 03:20:22;;;;;;;6.23;2.70;;;;;;;14.68;89.88;101822.78;6225777;28;20319;-73
2022/10/28 03:23:43;;;;;;;3.03;2.53;;;;;;;14.69;90.01;101823.59;6222709;28;20236;-73
2022/10/28 03:27:03;;;;;;;6.60;2.23;;;;;;;14.55;90.68;101814.03;6212303;28;20244;-74
2022/10/28 03:30:24;;;;;;;5.57;2.47;;;;;;;14.40;91.22;101809.97;6222775;28;20236;-73
2022/10/28 03:33:47;;;;;;;3.07;1.70;;;;;;;14.29;91.85;101808.22;6218556;28;20498;-74
2022/10/28 03:37:08;;;;;;;4.87;2.87;;;;;;;14.38;91.43;101804.69;6212367;28;21659;-73
2022/10/28 03:40:29;;;;;;;3.23;2.57;;;;;;;14.55;90.92;101805.88;6222270;28;20229;-73
2022/10/28 03:43:50;;;;;;;3.77;2.47;;;;;;;14.55;91.11;101811.31;6222757;28;20506;-74
2022/10/28 03:47:10;;;;;;;2.60;2.17;;;;;;;14.63;90.48;101807.88;6213580;28;20319;-74
2022/10/28 03:50:32;;;;;;;8.10;2.93;;;;;;;14.68;90.00;101813.75;6222382;28;20315;-74
2022/10/28 03:53:53;;;;;;;4.50;2.30;;;;;;;14.55;90.59;101805.00;6225771;28;20224;-74
2022/10/28 03:57:14;;;;;;;10.53;2.97;;;;;;;14.43;91.38;101800.69;6217323;28;20686;-74
2022/10/28 04:00:35;;;;;;;4.60;2.43;;;;;;;14.38;91.80;101803.81;6224522;28;20240;-74
2022/10/28 04:03:55;;;;;;;5.17;2.63;;;;;;;14.32;92.17;101805.25;6223780;28;20229;-73
2022/10/28 04:07:18;;;;;;;3.00;2.20;;;;;;;14.32;92.56;101799.81;6209866;28;20232;-73
2022/10/28 04:10:38;;;;;;;3.67;2.17;;;;;;;14.28;92.67;101808.31;6225514;28;20232;-74
2022/10/28 04:13:59;;;;;;;5.37;2.20;;;;;;;14.33;92.58;101792.53;6226826;28;20232;-74
2022/10/28 04:17:20;;;;;;;6.17;3.00;;;;;;;14.43;91.96;101784.41;6214089;28;20244;-74
2022/10/28 04:20:41;;;;;;;3.10;2.57;;;;;;;14.31;92.69;101784.53;6219326;28;20232;-74
2022/10/28 04:24:03;;;;;;;3.57;3.10;;;;;;;14.31;92.22;101789.94;6223050;28;20224;-74
2022/10/28 04:27:24;;;;;;;3.87;2.10;;;;;;;14.37;92.19;101791.28;6221287;28;20680;-74
2022/10/28 04:30:46;;;;;;;3.63;3.17;;;;;;;14.43;92.16;101793.44;6232252;28;20251;-74
2022/10/28 04:34:07;;;;;;;2.43;2.23;;;;;;;14.40;92.31;101797.28;6219957;28;20236;-73
2022/10/28 04:37:28;;;;;;;5.97;3.00;;;;;;;14.41;91.81;101804.41;6227527;28;20259;-73
2022/10/28 04:40:50;;;;;;;4.77;2.40;;;;;;;14.48;91.94;101798.44;6232264;28;20232;-73
2022/10/28 04:44:11;;;;;;;19.37;3.73;;;;;;;14.45;91.74;101804.13;6236086;28;20244;-74
2022/10/28 04:47:32;;;;;;;5.70;2.50;;;;;;;14.50;91.25;101804.59;6221111;28;20231;-74
2022/10/28 04:50:53;;;;;;;5.87;2.63;;;;;;;14.38;91.88;101809.25;6221860;28;20220;-74
2022/10/28 04:54:14;;;;;;;2.33;2.03;;;;;;;14.40;92.27;101808.13;6226358;28;20225;-73
2022/10/28 04:57:36;;;;;;;4.53;2.43;;;;;;;14.41;91.93;101801.69;6220732;28;20231;-74
2022/10/28 05:00:56;;;;;;;6.50;4.87;;;;;;;14.51;91.79;101798.16;6216538;28;20232;-74
2022/10/28 05:04:17;;;;;;;2.60;2.37;;;;;;;14.53;91.15;101804.28;6202119;28;20256;-74
2022/10/28 05:07:38;;;;;;;4.57;2.70;;;;;;;14.47;91.37;101800.28;6222939;28;20239;-74
2022/10/28 05:10:59;;;;;;;3.47;2.20;;;;;;;14.51;91.34;101798.16;6226783;28;20324;-74
2022/10/28 05:14:22;;;;;;;3.57;2.67;;;;;;;14.54;91.08;101785.16;6220378;28;20240;-74
2022/10/28 05:17:44;;;;;;;14.60;4.43;;;;;;;14.54;90.86;101785.16;6218068;28;20330;-74
2022/10/28 05:21:05;;;;;;;5.30;3.17;;;;;;;14.39;91.06;101773.84;6224246;28;20315;-75
2022/10/28 05:24:26;;;;;;;4.83;3.83;;;;;;;14.32;91.57;101772.69;6218616;28;20232;-73
2022/10/28 05:27:47;;;;;;;4.87;3.33;;;;;;;14.22;92.23;101763.63;6218827;28;20231;-74
2022/10/28 05:31:10;;;;;;;3.17;2.00;;;;;;;14.26;91.81;101758.78;6222594;28;20256;-74
2022/10/28 05:34:30;;;;;;;5.50;2.97;;;;;;;14.22;92.01;101770.91;6227149;28;20233;-73
2022/10/28 05:37:51;;;;;;;4.93;2.37;;;;;;;14.13;92.69;101778.00;6219208;28;20227;-73
2022/10/28 05:41:12;;;;;;;6.33;2.03;;;;;;;14.08;93.35;101768.59;6219498;28;20672;-77
2022/10/28 05:44:33;;;;;;;4.03;2.90;;;;;;;14.10;93.38;101772.00;6216222;28;20229;-78
2022/10/28 05:47:55;;;;;;;3.77;3.47;;;;;;;14.18;92.84;101758.63;6214296;28;20229;-82
2022/10/28 05:51:16;;;;;;;3.83;3.50;;;;;;;14.07;93.25;101767.72;6214922;28;20228;-76
2022/10/28 05:54:37;;;;;;;6.57;4.37;;;;;;;13.97;93.68;101753.28;6216298;28;20229;-75
2022/10/28 05:57:58;;;;;;;5.53;2.70;;;;;;;13.97;93.92;101749.69;6227973;28;20319;-79
2022/10/28 06:01:19;;;;;;;10.17;3.77;;;;;;;13.97;93.73;101746.97;6213721;28;20221;-79
2022/10/28 06:04:41;;;;;;;6.60;3.80;;;;;;;13.91;94.09;101740.25;6233602;28;20223;-78
2022/10/28 06:08:04;;;;;;;7.17;3.00;;;;;;;13.97;93.81;101747.84;6222956;28;20608;-77
2022/10/28 06:11:25;;;;;;;3.40;2.80;;;;;;;14.00;93.69;101750.25;6193885;28;20549;-77
2022/10/28 06:14:46;;;;;;;4.07;3.50;;;;;;;14.00;93.83;101752.09;6212578;28;20237;-75
2022/10/28 06:18:07;;;;;;;7.53;3.03;;;;;;;14.09;93.56;101752.16;6214079;28;20259;-79
2022/10/28 06:21:29;;;;;;;7.80;3.80;;;;;;;14.07;93.17;101750.59;6199645;28;20236;-72
2022/10/28 06:24:50;;;;;;;5.13;3.17;;;;;;;14.10;93.57;101755.75;6208600;28;20324;-73
2022/10/28 06:28:11;;;;;;;12.17;3.60;;;;;;;14.08;93.25;101758.56;6219335;28;20237;-71
2022/10/28 06:31:32;;;;;;;4.07;2.97;;;;;;;14.07;93.39;101761.44;6205275;28;20629;-76
2022/10/28 06:34:53;;;;;;;6.03;3.33;;;;;;;14.07;93.27;101759.56;6218866;28;20232;-74
2022/10/28 06:38:15;;;;;;;4.50;3.63;;;;;;;14.07;92.72;101756.88;6212204;28;20263;-80
2022/10/28 06:41:35;;;;;;;5.37;3.03;;;;;;;14.10;93.06;101762.00;6218584;28;20258;-76
2022/10/28 06:44:56;;;;;;;4.87;4.20;;;;;;;14.11;93.15;101765.56;6231571;28;20653;-78
2022/10/28 06:48:17;;;;;;;7.53;4.80;;;;;;;14.11;93.07;101769.16;6216167;28;20597;-78
2022/10/28 06:51:38;;;;;;;6.37;2.83;;;;;;;14.29;92.42;101775.66;6197799;28;20248;-78
2022/10/28 06:55:00;;;;;;;6.17;3.83;;;;;;;14.25;92.56;101773.31;6227168;28;20213;-78
2022/10/28 06:58:22;;;;;;;4.90;3.03;;;;;;;14.14;92.65;101777.00;6229037;28;20236;-77
2022/10/28 07:01:43;;;;;;;3.73;2.80;;;;;;;14.35;92.59;101777.81;6206090;28;20593;-76
2022/10/28 07:05:04;;;;;;;4.50;2.63;;;;;;;14.61;91.56;101767.31;6223410;28;20221;-79
2022/10/28 07:08:26;;;;;;;6.53;3.40;;;;;;;14.55;91.00;101770.59;6214385;28;20228;-77
2022/10/28 07:11:49;;;;;;;3.17;2.77;;;;;;;14.59;90.84;101766.59;6226302;28;20248;-76
2022/10/28 07:15:11;;;;;;;5.67;3.33;;;;;;;14.60;90.58;101754.78;6234098;28;20630;-81
2022/10/28 07:18:32;;;;;;;4.67;3.33;;;;;;;14.52;91.22;101772.75;6225691;28;20664;-79
2022/10/28 07:21:53;;;;;;;6.13;3.73;;;;;;;14.66;90.98;101777.75;6212036;28;21030;-79
2022/10/28 07:25:13;;;;;;;4.80;2.70;;;;;;;14.71;90.69;101767.31;6209489;28;20232;-78
2022/10/28 07:28:36;;;;;;;2.70;2.20;;;;;;;14.82;90.23;101764.50;6200190;28;20232;-82
2022/10/28 07:31:57;;;;;;;6.07;3.20;;;;;;;14.86;89.87;101757.78;6215699;28;20247;-75
2022/10/28 07:35:18;;;;;;;5.80;4.03;;;;;;;14.99;89.94;101764.66;6235209;28;20260;-79
2022/10/28 07:38:39;;;;;;;9.43;4.67;;;;;;;15.10;88.91;101760.94;6235458;28;20233;-79
2022/10/28 07:42:00;;;;;;;6.00;2.43;;;;;;;15.33;88.36;101751.47;6232096;28;20231;-80
2022/10/28 07:45:23;;;;;;;5.97;2.40;;;;;;;15.49;87.44;101759.91;6222144;28;20228;-77
2022/10/28 07:48:44;;;;;;;4.40;4.00;;;;;;;15.46;87.13;101759.34;6217897;28;20237;-75
2022/10/28 07:52:05;;;;;;;5.80;3.67;;;;;;;15.35;87.48;101768.50;6215424;28;20243;-77
2022/10/28 07:55:26;;;;;;;4.53;2.47;;;;;;;15.57;86.53;101768.19;6236836;28;20334;-78
2022/10/28 07:58:47;;;;;;;3.70;2.17;;;;;;;15.58;86.94;101774.50;6220455;28;20296;-80
2022/10/28 08:02:16;;;;;;;5.27;3.33;;;;;;;15.75;85.74;101768.31;6219307;28;20224;-79
2022/10/28 08:05:37;;;;;;;5.47;3.60;;;;;;;15.69;85.35;101767.00;6233443;28;20235;-78
2022/10/28 08:08:58;;;;;;;3.63;2.40;;;;;;;15.78;85.65;101763.41;6195630;28;20225;-77
2022/10/28 08:12:19;;;;;;;3.57;3.27;;;;;;;16.12;84.43;101757.41;6212144;28;20236;-78
2022/10/28 08:15:39;;;;;;;3.43;2.40;;;;;;;16.08;84.19;101756.00;6231183;28;20236;-77
2022/10/28 08:19:02;;;;;;;10.87;5.13;;;;;;;16.54;83.02;101766.81;6229738;28;20233;-76
2022/10/28 08:22:23;;;;;;;8.47;2.83;;;;;;;16.55;82.33;101755.75;6199359;28;20262;-81
2022/10/28 08:25:49;;;;;;;3.20;2.37;;;;;;;16.85;81.37;101753.69;6209846;28;20245;-77
2022/10/28 08:29:11;;;;;;;3.73;2.53;;;;;;;16.78;81.26;101756.16;6218469;28;20236;-75
2022/10/28 08:32:31;;;;;;;3.90;2.63;;;;;;;17.09;79.86;101757.50;6216705;28;20235;-77
2022/10/28 08:35:54;;;;;;;5.20;3.28;;;;;;;16.92;80.24;101747.44;6221924;28;20329;-76
2022/10/28 08:39:14;;;;;;;4.03;2.10;;;;;;;17.03;79.74;101749.09;6218488;28;20278;-77
2022/10/28 08:42:44;;;;;;;7.30;3.22;;;;;;;17.34;78.39;101750.38;6226532;28;20228;-79
2022/10/28 08:46:19;;;;;;;4.10;2.45;;;;;;;17.62;77.77;101729.31;6221195;28;20227;-76
2022/10/28 08:49:41;;;;;;;4.13;2.58;;;;;;;18.23;75.00;101730.81;6207160;28;20235;-77
2022/10/28 08:53:12;;;;;;;4.43;2.17;;;;;;;18.76;74.18;101733.22;6217735;28;20228;-79
2022/10/28 08:56:37;;;;;;;4.57;3.05;;;;;;;20.58;66.35;101735.16;6210358;28;20229;-75
2022/10/28 09:00:01;;;;;;;7.47;2.67;;;;;;;21.81;61.47;101732.06;6231449;28;20220;-78
2022/10/28 09:03:25;;;;;;;4.45;2.35;;;;;;;23.07;57.09;101739.03;6214017;28;20840;-78
2022/10/28 09:06:45;;;;;;;3.33;2.03;;;;;;;23.58;55.95;101738.66;6211440;28;20717;-77
2022/10/28 09:10:10;;;;;;;3.75;2.63;;;;;;;24.81;52.42;101744.25;6222530;28;20327;-78
2022/10/28 09:13:43;;;;;;;3.92;2.28;;;;;;;24.33;53.19;101726.88;6225620;28;21006;-76
2022/10/28 09:17:16;;;;;;;7.47;2.17;;;;;;;26.38;47.49;101734.03;6210160;28;20228;-76
2022/10/28 09:20:48;;;;;;;6.57;2.63;;;;;;;26.45;47.16;101722.97;6234306;28;20228;-78
2022/10/28 09:24:18;;;;;;;5.32;2.38;;;;;;;26.71;46.27;101725.59;6217934;28;20544;-77
2022/10/28 09:28:00;;;;;;;4.57;3.00;;;;;;;26.96;44.95;101721.00;6220544;28;20232;-77
2022/10/28 09:31:30;;;;;;;3.78;2.00;;;;;;;26.68;45.91;101721.34;6216263;28;20232;-78
2022/10/28 09:34:57;;;;;;;5.78;2.22;;;;;;;27.42;44.23;101721.53;6234025;28;20228;-75
2022/10/28 09:38:26;;;;;;;6.50;2.58;;;;;;;26.71;45.72;101712.59;6230600;28;20248;-77
2022/10/28 09:41:48;;;;;;;7.45;2.17;;;;;;;27.02;46.06;101711.78;6220309;28;20258;-83
2022/10/28 09:45:16;;;;;;;3.70;3.13;;;;;;;26.75;46.32;101719.41;6239237;28;20228;-76
2022/10/28 09:48:40;;;;;;;5.45;2.40;;;;;;;28.95;41.33;101718.50;6211873;28;20224;-78
2022/10/28 09:52:05;;;;;;;5.90;1.92;;;;;;;29.87;39.64;101717.00;6207185;28;20228;-78
2022/10/28 09:55:26;;;;;;;5.13;2.58;;;;;;;30.38;39.32;101711.50;6226929;28;20315;-74
2022/10/28 09:58:48;;;;;;;5.70;1.77;;;;;;;29.79;38.86;101707.06;6214724;28;20240;-77
2022/10/28 10:02:26;;;;;;;3.00;2.22;;;;;;;31.54;36.55;101716.53;6212998;28;20232;-76
2022/10/28 10:05:52;;;;;;;4.25;2.75;;;;;;;32.28;35.33;101720.72;6216046;28;20635;-78
2022/10/28 10:09:21;;;;;;;2.90;2.45;;;;;;;31.92;34.76;101724.06;6214720;28;20279;-73
2022/10/28 10:12:46;;;;;;;5.22;2.67;;;;;;;33.77;32.35;101731.00;6511236;22;20231;-75
2022/10/28 10:16:17;;;;;;;6.28;2.80;;;;;;;33.88;32.45;101719.91;6246398;28;21154;-77
2022/10/28 10:20:03;;;;;;;4.78;1.70;;;;;;;33.39;32.13;101711.66;6256142;28;20226;-76
2022/10/28 10:23:29;;;;;;;2.92;2.58;;;;;;;34.83;30.42;101705.53;6250731;28;20459;-74
2022/10/28 10:26:51;;;;;;;5.97;2.50;;;;;;;32.96;33.70;101707.03;6242767;28;20240;-80
2022/10/28 10:30:18;;;;;;;5.22;3.10;;;;;;;29.39;39.06;101714.41;6246232;28;20783;-77
2022/10/28 10:33:40;;;;;;;6.32;2.00;;;;;;;28.08;42.25;101712.59;6227146;28;20229;-77
2022/10/28 10:37:03;;;;;;;7.38;3.05;;;;;;;30.57;37.68;101703.81;6216810;28;20232;-78
2022/10/28 10:40:26;;;;;;;4.85;3.67;;;;;;;31.68;36.05;101703.06;6236058;28;20224;-75
2022/10/28 10:43:47;;;;;;;10.23;2.90;;;;;;;31.80;34.30;101687.06;6215802;28;20327;-79
2022/10/28 10:47:18;;;;;;;6.63;2.53;;;;;;;33.29;33.08;101686.41;6216837;28;20625;-80
2022/10/28 10:50:39;;;;;;;5.32;1.92;;;;;;;35.38;29.59;101684.00;6238106;28;21038;-83
2022/10/28 10:54:03;;;;;;;6.60;3.08;;;;;;;34.97;30.54;101679.47;6207207;28;21216;-82
2022/10/28 10:57:25;;;;;;;7.35;3.60;;;;;;;33.80;31.80;101677.31;6197213;28;20224;-81
2022/10/28 11:00:48;;;;;;;5.95;2.38;;;;;;;33.00;33.37;101674.69;6210800;28;20221;-80
2022/10/28 11:04:16;;;;;;;4.82;2.28;;;;;;;33.83;32.71;101667.53;6211643;28;20237;-81
2022/10/28 11:07:46;;;;;;;3.33;2.25;;;;;;;32.84;32.15;101661.63;6203815;28;20298;-82
2022/10/28 11:11:13;;;;;;;5.82;2.55;;;;;;;27.97;40.08;101669.84;6226231;28;20244;-81
2022/10/28 11:14:35;;;;;;;7.43;2.25;;;;;;;26.46;42.60;101656.34;6215453;28;20315;-77
2022/10/28 11:17:58;;;;;;;4.78;2.25;;;;;;;26.00;44.01;101664.81;6212312;28;21724;-76
2022/10/28 11:21:34;;;;;;;8.38;3.17;;;;;;;28.01;40.76;101656.34;6219440;28;20503;-77
2022/10/28 11:25:19;;;;;;;2.72;2.08;;;;;;;29.72;36.79;101659.06;6221304;28;20221;-76
2022/10/28 11:29:11;;;;;;;6.68;2.47;;;;;;;27.30;41.69;101658.75;6195559;28;20232;-65
2022/10/28 11:32:47;;;;;;;4.53;2.55;;;;;;;26.14;44.04;101660.09;6217018;28;20737;-65
2022/10/28 11:36:17;;;;;;;4.38;2.60;;;;;;;27.08;42.05;101649.97;6207812;28;20236;-65
2022/10/28 11:39:49;;;;;;;6.05;2.38;;;;;;;27.73;41.75;101656.84;6223372;28;20229;-67
2022/10/28 11:43:24;;;;;;;5.15;2.92;;;;;;;26.48;44.04;101650.59;6228741;28;20759;-65
2022/10/28 11:46:55;;;;;;;7.63;3.08;;;;;;;27.37;41.90;101645.72;6208441;28;20264;-65
2022/10/28 11:50:43;;;;;;;3.15;2.40;;;;;;;26.54;44.12;101636.72;6210110;28;20585;-65
2022/10/28 11:54:22;;;;;;;5.47;2.80;;;;;;;26.10;45.23;101648.66;6203518;28;20232;-66
2022/10/28 11:57:54;;;;;;;4.35;2.38;;;;;;;24.72;48.62;101643.44;6204482;28;20239;-65
2022/10/28 12:01:26;;;;;;;4.93;2.65;;;;;;;24.51;49.27;101637.00;6208929;28;20228;-65
2022/10/28 12:04:58;;;;;;;7.22;3.75;;;;;;;23.89;51.32;101627.19;6216041;28;20631;-63
2022/10/28 12:08:34;;;;;;;4.65;2.08;;;;;;;23.46;52.67;101634.81;6213642;28;20232;-63
2022/10/28 12:12:12;;;;;;;3.70;1.90;;;;;;;24.94;48.71;101639.44;6206595;28;20330;-66
2022/10/28 12:15:42;;;;;;;7.97;3.15;;;;;;;26.35;44.93;101634.09;6226338;28;20233;-64
2022/10/28 12:19:11;;;;;;;10.13;3.08;;;;;;;25.52;47.78;101633.06;6219533;28;20299;-65
2022/10/28 12:22:44;;;;;;;4.05;2.17;;;;;;;25.37;48.18;101629.66;6212501;28;20306;-65
2022/10/28 12:26:09;;;;;;;2.97;1.83;;;;;;;24.64;49.46;101635.34;6216262;28;20244;-66
2022/10/28 12:29:36;;;;;;;4.80;2.80;;;;;;;23.91;51.99;101628.69;6213258;28;20224;-65
2022/10/28 12:33:00;;;;;;;6.35;3.00;;;;;;;23.40;53.58;101632.88;6216492;28;20231;-64
2022/10/28 12:36:32;;;;;;;7.13;3.13;;;;;;;23.16;54.14;101619.50;6209238;28;20225;-66
2022/10/28 12:40:01;;;;;;;3.60;2.42;;;;;;;23.19;54.48;101619.13;6215183;28;20240;-65
2022/10/28 12:43:28;;;;;;;5.30;2.17;;;;;;;23.18;54.80;101620.16;6223600;28;20614;-65
2022/10/28 12:46:57;;;;;;;5.00;3.05;;;;;;;23.97;52.89;101616.03;6215543;28;20227;-65
2022/10/28 12:50:27;;;;;;;5.38;2.28;;;;;;;24.44;51.19;101614.09;6223520;28;20235;-65
2022/10/28 12:53:56;;;;;;;12.45;4.15;;;;;;;24.06;52.33;101607.41;6231714;28;20231;-65
2022/10/28 12:57:22;;;;;;;2.78;2.20;;;;;;;23.90;51.99;101620.66;6220572;28;20318;-64
2022/10/28 13:00:46;;;;;;;5.53;1.92;;;;;;;23.56;53.47;101616.00;6231075;28;20236;-67
2022/10/28 13:04:11;;;;;;;3.78;2.35;;;;;;;24.22;52.37;101606.19;6231275;28;20579;-66
2022/10/28 13:07:52;;;;;;;3.85;1.80;;;;;;;24.33;50.76;101611.09;6224797;28;20605;-68
2022/10/28 13:11:38;;;;;;;4.18;1.98;;;;;;;24.50;50.56;101616.00;6222478;28;20496;-67
2022/10/28 13:15:40;;;;;;;6.15;2.08;;;;;;;23.63;52.84;101608.66;6221347;28;20244;-68
2022/10/28 13:19:17;;;;;;;7.13;3.13;;;;;;;23.41;53.67;101605.13;6220887;28;20232;-64
2022/10/28 13:23:03;;;;;;;11.88;4.10;;;;;;;23.22;54.36;101608.56;6221105;28;20530;-64
2022/10/28 13:26:28;;;;;;;5.38;2.92;;;;;;;23.61;53.70;101608.84;6209316;28;20224;-65
2022/10/28 13:29:52;;;;;;;8.35;2.63;;;;;;;22.89;55.61;101597.31;6223159;28;20611;-65
2022/10/28 13:33:20;;;;;;;5.68;2.28;;;;;;;22.75;56.55;101595.50;6217488;28;20608;-64
2022/10/28 13:36:44;;;;;;;4.72;2.20;;;;;;;22.69;56.69;101606.44;6218237;28;20239;-64
2022/10/28 13:40:06;;;;;;;3.38;1.98;;;;;;;22.72;56.71;101600.50;6229120;28;20234;-65
2022/10/28 13:44:12;;;;;;;5.20;3.65;;;;;;;22.82;56.92;101592.81;6218554;28;20228;-64
2022/10/28 13:47:35;;;;;;;5.47;2.42;;;;;;;22.64;57.66;101582.28;6114816;28;20254;-64
2022/10/28 13:51:29;;;;;;;3.88;2.33;;;;;;;22.37;58.47;101590.41;6216144;28;20228;-65
2022/10/28 13:54:57;;;;;;;4.88;2.33;;;;;;;22.54;57.72;101586.38;6223149;28;20320;-64
2022/10/28 13:58:22;;;;;;;3.13;2.53;;;;;;;22.58;58.42;101583.06;6232858;28;20228;-65
2022/10/28 14:01:53;;;;;;;6.53;2.97;;;;;;;22.38;59.06;101590.25;6205717;28;20333;-65
2022/10/28 14:05:16;;;;;;;3.75;2.70;;;;;;;22.19;59.42;101583.50;6231902;28;20272;-64
2022/10/28 14:08:39;;;;;;;4.97;2.97;;;;;;;22.17;58.74;101585.53;6228882;28;20315;-67
2022/10/28 14:12:16;;;;;;;11.93;4.28;;;;;;;21.96;59.63;101581.94;6207048;28;20700;-63
2022/10/28 14:15:39;;;;;;;5.10;2.63;;;;;;;21.92;59.92;101578.72;6228568;28;20236;-63
2022/10/28 14:19:04;;;;;;;4.65;2.83;;;;;;;21.88;60.07;101566.41;6216443;28;20728;-62
2022/10/28 14:22:31;;;;;;;9.50;2.50;;;;;;;21.83;60.74;101568.03;6194055;28;20610;-63
2022/10/28 14:26:04;;;;;;;6.47;3.05;;;;;;;21.91;60.84;101562.44;6213371;28;20613;-63
2022/10/28 14:29:29;;;;;;;7.70;4.72;;;;;;;22.04;60.78;101554.34;6212207;28;20673;-62
2022/10/28 14:33:11;;;;;;;5.95;2.50;;;;;;;21.76;61.80;101567.09;6222841;28;20235;-63
2022/10/28 14:36:39;;;;;;;3.88;2.67;;;;;;;21.71;62.01;101566.81;6206899;28;20307;-63
2022/10/28 14:40:15;;;;;;;7.93;3.30;;;;;;;21.68;62.55;101569.91;6234275;28;20232;-63
2022/10/28 14:43:57;;;;;;;6.72;3.15;;;;;;;21.66;62.61;101567.38;6228422;28;20228;-63
2022/10/28 14:47:51;;;;;;;8.27;3.35;;;;;;;21.67;62.64;101555.38;6213344;28;20676;-62
2022/10/28 14:51:15;;;;;;;5.85;3.22;;;;;;;21.64;62.94;101565.84;6205610;28;20229;-73
2022/10/28 14:54:43;;;;;;;7.65;4.50;;;;;;;21.56;63.30;101561.31;6222447;28;20228;-73
2022/10/28 14:58:21;;;;;;;7.72;4.35;;;;;;;21.51;63.49;101560.22;6225318;28;20227;-73
2022/10/28 15:01:57;;;;;;;5.32;2.28;;;;;;;21.54;63.43;101552.44;6220018;28;20361;-73
2022/10/28 15:05:20;;;;;;;7.88;2.83;;;;;;;21.42;64.05;101556.72;6240533;28;20231;-74
2022/10/28 15:08:41;;;;;;;9.68;4.00;;;;;;;21.36;64.28;101547.31;6234152;28;20573;-74
2022/10/28 15:12:07;;;;;;;3.97;2.63;;;;;;;21.38;64.36;101556.22;6218390;28;22085;-74
2022/10/28 15:15:30;;;;;;;7.68;3.63;;;;;;;21.39;64.44;101543.34;6231192;28;20236;-74
2022/10/28 15:18:52;;;;;;;7.80;4.13;;;;;;;21.24;65.12;101543.38;6234096;28;20673;-74
2022/10/28 15:22:18;;;;;;;8.88;3.75;;;;;;;21.18;65.28;101551.50;6224722;28;20240;-73
2022/10/28 15:25:38;;;;;;;9.82;2.60;;;;;;;21.09;65.90;101553.47;6229902;28;20235;-73
2022/10/28 15:29:00;;;;;;;7.25;4.35;;;;;;;20.94;66.60;101549.84;6215124;28;20625;-73
2022/10/28 15:32:27;;;;;;;5.85;4.25;;;;;;;20.76;67.47;101546.59;6220768;28;20255;-73
2022/10/28 15:35:48;;;;;;;5.18;3.10;;;;;;;20.80;67.21;101547.91;6220101;28;20332;-74
2022/10/28 15:39:16;;;;;;;9.35;5.03;;;;;;;20.80;67.26;101558.03;6227919;28;20579;-73
2022/10/28 15:42:41;;;;;;;8.57;5.38;;;;;;;20.79;67.64;101551.72;6218477;28;20807;-72
2022/10/28 15:46:10;;;;;;;24.30;13.05;;;;;;;20.70;67.79;101553.66;6226592;28;20228;-73
2022/10/28 15:49:36;;;;;;;10.98;6.32;;;;;;;20.73;67.81;101546.13;6226636;28;20567;-73
2022/10/28 15:53:20;;;;;;;14.52;5.88;;;;;;;20.65;67.99;101561.56;6225834;28;20535;-74
2022/10/28 15:56:56;;;;;;;7.22;5.97;;;;;;;20.50;68.52;101557.09;6221370;28;20245;-73